createdAt,value
2023-02-19T00:00:34.944Z,980.79
2023-02-19T00:01:34.938Z,980.82
2023-02-19T00:02:34.787Z,980.80
2023-02-19T00:03:34.774Z,980.76
2023-02-19T00:04:34.647Z,980.76
2023-02-19T00:05:34.549Z,980.76
2023-02-19T00:06:34.462Z,980.73
2023-02-19T00:07:34.386Z,980.74
2023-02-19T00:08:34.299Z,980.75
2023-02-19T00:09:34.220Z,980.69
2023-02-19T00:10:34.132Z,980.69
2023-02-19T00:11:34.048Z,980.68
2023-02-19T00:12:33.973Z,980.66
2023-02-19T00:13:33.887Z,980.67
2023-02-19T00:14:33.807Z,980.64
2023-02-19T00:15:33.735Z,980.65
2023-02-19T00:16:33.648Z,980.62
2023-02-19T00:17:33.559Z,980.63
2023-02-19T00:18:33.483Z,980.65
2023-02-19T00:19:33.400Z,980.61
2023-02-19T00:20:33.323Z,980.66
2023-02-19T00:21:33.234Z,980.60
2023-02-19T00:22:33.157Z,980.59
2023-02-19T00:23:33.072Z,980.59
2023-02-19T00:24:32.997Z,980.58
2023-02-19T00:25:32.913Z,980.54
2023-02-19T00:26:32.845Z,980.52
2023-02-19T00:27:32.749Z,980.53
2023-02-19T00:28:32.674Z,980.51
2023-02-19T00:29:32.583Z,980.53
2023-02-19T00:30:32.546Z,980.51
2023-02-19T00:31:33.355Z,980.49
2023-02-19T00:32:32.345Z,980.58
2023-02-19T00:33:32.269Z,980.59
2023-02-19T00:34:32.185Z,980.59
2023-02-19T00:35:32.096Z,980.64
2023-02-19T00:36:32.025Z,980.64
2023-02-19T00:37:31.942Z,980.65
2023-02-19T00:38:31.875Z,980.68
2023-02-19T00:39:31.777Z,980.68
2023-02-19T00:40:31.697Z,980.71
2023-02-19T00:41:31.616Z,980.69
2023-02-19T00:42:31.536Z,980.70
2023-02-19T00:43:31.451Z,980.66
2023-02-19T00:44:31.381Z,980.68
2023-02-19T00:45:31.291Z,980.68
2023-02-19T00:46:31.293Z,980.68
2023-02-19T00:47:31.130Z,980.64
2023-02-19T00:48:31.057Z,980.62
2023-02-19T00:49:30.971Z,980.62
2023-02-19T00:50:30.882Z,980.60
2023-02-19T00:51:30.805Z,980.59
2023-02-19T00:52:30.762Z,980.61
2023-02-19T00:53:30.641Z,980.66
2023-02-19T00:54:30.556Z,980.59
2023-02-19T00:55:30.478Z,980.56
2023-02-19T00:56:30.404Z,980.57
2023-02-19T00:57:30.311Z,980.55
2023-02-19T00:58:30.233Z,980.55
2023-02-19T00:59:30.166Z,980.50
2023-02-19T01:00:30.070Z,980.52
2023-02-19T01:01:30.005Z,980.59
2023-02-19T01:02:29.906Z,980.54
2023-02-19T01:03:29.826Z,980.55
2023-02-19T01:04:29.764Z,980.49
2023-02-19T01:05:29.658Z,980.42
2023-02-19T01:06:29.583Z,980.42
2023-02-19T01:07:29.496Z,980.41
2023-02-19T01:08:29.416Z,980.38
2023-02-19T01:09:29.336Z,980.33
2023-02-19T01:10:29.253Z,980.29
2023-02-19T01:11:29.183Z,980.28
2023-02-19T01:12:29.106Z,980.21
2023-02-19T01:13:29.008Z,980.13
2023-02-19T01:14:28.929Z,980.16
2023-02-19T01:15:28.843Z,980.06
2023-02-19T01:16:28.848Z,980.07
2023-02-19T01:17:28.684Z,980.09
2023-02-19T01:18:28.601Z,980.15
2023-02-19T01:19:28.516Z,980.12
2023-02-19T01:20:28.438Z,980.08
2023-02-19T01:21:28.360Z,980.05
2023-02-19T01:22:28.272Z,980.01
2023-02-19T01:23:28.197Z,980.03
2023-02-19T01:24:28.115Z,980.04
2023-02-19T01:25:28.030Z,980.04
2023-02-19T01:26:27.963Z,980.05
2023-02-19T01:27:27.879Z,980.02
2023-02-19T01:28:27.786Z,980.05
2023-02-19T01:29:27.700Z,980.04
2023-02-19T01:30:27.696Z,980.08
2023-02-19T01:31:27.642Z,980.04
2023-02-19T01:32:27.461Z,980.04
2023-02-19T01:33:27.385Z,980.07
2023-02-19T01:34:27.315Z,980.01
2023-02-19T01:35:27.208Z,980.03
2023-02-19T01:36:27.131Z,980.02
2023-02-19T01:37:27.049Z,979.98
2023-02-19T01:38:26.974Z,979.94
2023-02-19T01:39:26.891Z,979.91
2023-02-19T01:40:26.805Z,979.93
2023-02-19T01:41:26.729Z,979.92
2023-02-19T01:42:26.650Z,979.92
2023-02-19T01:43:26.568Z,979.91
2023-02-19T01:44:26.478Z,979.83
2023-02-19T01:45:26.404Z,979.80
2023-02-19T01:46:26.355Z,979.80
2023-02-19T01:47:26.235Z,979.70
2023-02-19T01:48:26.181Z,979.69
2023-02-19T01:49:26.075Z,979.74
2023-02-19T01:50:25.995Z,979.64
2023-02-19T01:51:25.910Z,979.64
2023-02-19T01:52:25.837Z,979.60
2023-02-19T01:53:25.745Z,979.60
2023-02-19T01:54:25.683Z,979.60
2023-02-19T01:55:25.587Z,979.62
2023-02-19T01:56:25.503Z,979.62
2023-02-19T01:57:25.473Z,979.58
2023-02-19T01:58:25.348Z,979.60
2023-02-19T01:59:25.258Z,979.53
2023-02-19T02:00:25.178Z,979.54
2023-02-19T02:01:25.099Z,979.55
2023-02-19T02:02:25.021Z,979.53
2023-02-19T02:03:24.940Z,979.50
2023-02-19T02:04:24.859Z,979.51
2023-02-19T02:05:24.781Z,979.48
2023-02-19T02:06:24.701Z,979.50
2023-02-19T02:07:24.608Z,979.40
2023-02-19T02:08:24.527Z,979.44
2023-02-19T02:09:24.453Z,979.36
2023-02-19T02:10:26.092Z,979.35
2023-02-19T02:11:24.281Z,979.42
2023-02-19T02:12:24.201Z,979.50
2023-02-19T02:13:24.187Z,979.52
2023-02-19T02:14:24.049Z,979.43
2023-02-19T02:15:23.962Z,979.43
2023-02-19T02:16:23.928Z,979.43
2023-02-19T02:17:23.793Z,979.47
2023-02-19T02:18:23.712Z,979.47
2023-02-19T02:19:23.633Z,979.46
2023-02-19T02:20:23.561Z,979.42
2023-02-19T02:21:23.469Z,979.41
2023-02-19T02:22:23.391Z,979.45
2023-02-19T02:23:23.309Z,979.45
2023-02-19T02:24:23.229Z,979.47
2023-02-19T02:25:23.143Z,979.44
2023-02-19T02:26:23.074Z,979.43
2023-02-19T02:27:22.983Z,979.48
2023-02-19T02:28:22.904Z,979.45
2023-02-19T02:29:22.819Z,979.49
2023-02-19T02:30:22.775Z,979.48
2023-02-19T02:31:22.763Z,979.49
2023-02-19T02:32:22.610Z,979.47
2023-02-19T02:33:22.495Z,979.40
2023-02-19T02:34:22.410Z,979.42
2023-02-19T02:35:22.328Z,979.40
2023-02-19T02:36:22.268Z,979.44
2023-02-19T02:37:22.165Z,979.42
2023-02-19T02:38:22.087Z,979.40
2023-02-19T02:39:22.009Z,979.42
2023-02-19T02:40:21.928Z,979.36
2023-02-19T02:41:21.853Z,979.34
2023-02-19T02:42:21.764Z,979.35
2023-02-19T02:43:21.679Z,979.31
2023-02-19T02:44:21.603Z,979.31
2023-02-19T02:45:21.517Z,979.32
2023-02-19T02:46:21.445Z,979.35
2023-02-19T02:47:21.365Z,979.40
2023-02-19T02:48:21.273Z,979.31
2023-02-19T02:49:21.198Z,979.31
2023-02-19T02:50:21.108Z,979.29
2023-02-19T02:51:21.029Z,979.35
2023-02-19T02:52:20.945Z,979.32
2023-02-19T02:53:20.859Z,979.25
2023-02-19T02:54:20.784Z,979.25
2023-02-19T02:55:20.705Z,979.24
2023-02-19T02:56:20.630Z,979.14
2023-02-19T02:57:20.533Z,979.21
2023-02-19T02:58:20.465Z,979.19
2023-02-19T02:59:20.377Z,979.20
2023-02-19T03:00:20.295Z,979.21
2023-02-19T03:01:20.268Z,979.21
2023-02-19T03:02:20.176Z,979.22
2023-02-19T03:03:20.045Z,979.22
2023-02-19T03:04:19.969Z,979.19
2023-02-19T03:05:19.884Z,979.22
2023-02-19T03:06:19.805Z,979.22
2023-02-19T03:07:19.717Z,979.27
2023-02-19T03:08:19.639Z,979.27
2023-02-19T03:09:19.570Z,979.21
2023-02-19T03:10:19.479Z,979.25
2023-02-19T03:11:19.400Z,979.24
2023-02-19T03:12:19.321Z,979.20
2023-02-19T03:13:19.237Z,979.13
2023-02-19T03:14:19.155Z,979.19
2023-02-19T03:15:19.065Z,979.15
2023-02-19T03:16:19.017Z,979.07
2023-02-19T03:17:18.912Z,979.06
2023-02-19T03:18:18.829Z,979.05
2023-02-19T03:19:18.736Z,979.15
2023-02-19T03:20:18.658Z,979.22
2023-02-19T03:21:18.574Z,979.07
2023-02-19T03:22:18.497Z,979.04
2023-02-19T03:23:18.410Z,979.06
2023-02-19T03:24:18.339Z,979.04
2023-02-19T03:25:18.248Z,978.99
2023-02-19T03:26:18.170Z,979.02
2023-02-19T03:27:18.087Z,978.98
2023-02-19T03:28:18.017Z,978.98
2023-02-19T03:29:17.927Z,978.96
2023-02-19T03:30:17.865Z,978.99
2023-02-19T03:31:17.858Z,978.96
2023-02-19T03:32:17.695Z,978.99
2023-02-19T03:33:17.594Z,979.00
2023-02-19T03:34:17.514Z,978.93
2023-02-19T03:35:17.430Z,979.00
2023-02-19T03:36:17.351Z,978.91
2023-02-19T03:37:17.277Z,978.95
2023-02-19T03:38:17.188Z,978.93
2023-02-19T03:39:17.118Z,978.90
2023-02-19T03:40:17.033Z,978.90
2023-02-19T03:41:16.944Z,978.98
2023-02-19T03:42:16.865Z,978.98
2023-02-19T03:43:16.780Z,978.96
2023-02-19T03:44:16.696Z,978.90
2023-02-19T03:45:16.615Z,978.97
2023-02-19T03:46:16.539Z,978.95
2023-02-19T03:47:16.452Z,978.99
2023-02-19T03:48:16.368Z,978.98
2023-02-19T03:49:16.294Z,979.03
2023-02-19T03:50:16.206Z,978.94
2023-02-19T03:51:16.127Z,978.98
2023-02-19T03:52:16.044Z,978.96
2023-02-19T03:53:15.975Z,978.99
2023-02-19T03:54:15.882Z,978.94
2023-02-19T03:55:15.806Z,979.07
2023-02-19T03:56:15.719Z,978.99
2023-02-19T03:57:15.635Z,978.89
2023-02-19T03:58:15.561Z,978.94
2023-02-19T03:59:15.480Z,978.90
2023-02-19T04:00:15.397Z,978.93
2023-02-19T04:01:15.317Z,978.97
2023-02-19T04:02:15.262Z,978.97
2023-02-19T04:03:15.152Z,978.93
2023-02-19T04:04:15.068Z,978.85
2023-02-19T04:05:14.989Z,978.90
2023-02-19T04:06:14.903Z,978.90
2023-02-19T04:07:14.822Z,978.92
2023-02-19T04:08:14.748Z,978.92
2023-02-19T04:09:14.664Z,978.96
2023-02-19T04:10:14.585Z,978.95
2023-02-19T04:11:14.496Z,978.89
2023-02-19T04:12:14.416Z,978.87
2023-02-19T04:13:14.339Z,978.88
2023-02-19T04:14:14.250Z,978.92
2023-02-19T04:15:14.172Z,978.97
2023-02-19T04:16:14.152Z,978.94
2023-02-19T04:17:14.019Z,978.95
2023-02-19T04:18:13.929Z,979.13
2023-02-19T04:19:13.869Z,979.06
2023-02-19T04:20:13.763Z,979.09
2023-02-19T04:21:13.683Z,979.09
2023-02-19T04:22:13.605Z,979.09
2023-02-19T04:23:13.525Z,979.12
2023-02-19T04:24:13.435Z,979.18
2023-02-19T04:25:13.355Z,979.21
2023-02-19T04:26:13.275Z,979.16
2023-02-19T04:27:13.205Z,979.21
2023-02-19T04:28:13.114Z,979.25
2023-02-19T04:29:13.047Z,979.23
2023-02-19T04:30:12.945Z,979.29
2023-02-19T04:31:13.420Z,979.15
2023-02-19T04:32:12.797Z,979.01
2023-02-19T04:33:12.704Z,979.07
2023-02-19T04:34:12.624Z,979.09
2023-02-19T04:35:12.539Z,979.08
2023-02-19T04:36:12.462Z,979.13
2023-02-19T04:37:12.385Z,979.10
2023-02-19T04:38:12.293Z,979.12
2023-02-19T04:39:12.204Z,979.13
2023-02-19T04:40:12.124Z,979.15
2023-02-19T04:41:12.440Z,979.19
2023-02-19T04:42:11.961Z,979.23
2023-02-19T04:43:11.880Z,979.21
2023-02-19T04:44:11.801Z,979.15
2023-02-19T04:45:11.721Z,979.12
2023-02-19T04:46:11.656Z,979.21
2023-02-19T04:47:11.552Z,979.16
2023-02-19T04:48:11.475Z,979.19
2023-02-19T04:49:11.399Z,979.18
2023-02-19T04:50:11.308Z,979.17
2023-02-19T04:51:11.679Z,979.14
2023-02-19T04:52:11.138Z,979.14
2023-02-19T04:53:11.064Z,979.19
2023-02-19T04:54:10.982Z,979.21
2023-02-19T04:55:10.900Z,979.20
2023-02-19T04:56:10.815Z,979.25
2023-02-19T04:57:10.730Z,979.37
2023-02-19T04:58:10.655Z,979.42
2023-02-19T04:59:10.571Z,979.40
2023-02-19T05:00:10.493Z,979.37
2023-02-19T05:01:11.056Z,979.46
2023-02-19T05:02:10.326Z,979.46
2023-02-19T05:03:10.250Z,979.50
2023-02-19T05:04:10.224Z,979.42
2023-02-19T05:05:10.090Z,979.46
2023-02-19T05:06:10.010Z,979.44
2023-02-19T05:07:09.923Z,979.47
2023-02-19T05:08:09.836Z,979.45
2023-02-19T05:09:09.757Z,979.43
2023-02-19T05:10:09.674Z,979.55
2023-02-19T05:11:10.062Z,979.44
2023-02-19T05:12:09.510Z,979.48
2023-02-19T05:13:09.470Z,979.51
2023-02-19T05:14:09.352Z,979.41
2023-02-19T05:15:09.269Z,979.40
2023-02-19T05:16:09.228Z,979.30
2023-02-19T05:17:09.101Z,979.34
2023-02-19T05:18:09.031Z,979.31
2023-02-19T05:19:08.942Z,979.35
2023-02-19T05:20:08.863Z,979.33
2023-02-19T05:21:09.135Z,979.32
2023-02-19T05:22:08.694Z,979.28
2023-02-19T05:23:08.610Z,979.35
2023-02-19T05:24:08.534Z,979.43
2023-02-19T05:25:08.450Z,979.45
2023-02-19T05:26:08.368Z,979.41
2023-02-19T05:27:08.285Z,979.48
2023-02-19T05:28:08.208Z,979.43
2023-02-19T05:29:08.127Z,979.46
2023-02-19T05:30:08.087Z,979.45
2023-02-19T05:31:08.076Z,979.43
2023-02-19T05:32:07.934Z,979.44
2023-02-19T05:33:07.804Z,979.49
2023-02-19T05:34:07.711Z,979.39
2023-02-19T05:35:07.628Z,979.38
2023-02-19T05:36:07.553Z,979.40
2023-02-19T05:37:07.465Z,979.34
2023-02-19T05:38:07.385Z,979.40
2023-02-19T05:39:07.303Z,979.34
2023-02-19T05:40:07.226Z,979.34
2023-02-19T05:41:07.138Z,979.32
2023-02-19T05:42:07.060Z,979.28
2023-02-19T05:43:06.979Z,979.28
2023-02-19T05:44:06.896Z,979.31
2023-02-19T05:45:06.814Z,979.32
2023-02-19T05:46:06.755Z,979.36
2023-02-19T05:47:06.645Z,979.42
2023-02-19T05:48:06.568Z,979.51
2023-02-19T05:49:06.484Z,979.45
2023-02-19T05:50:06.403Z,979.47
2023-02-19T05:51:06.326Z,979.48
2023-02-19T05:52:06.234Z,979.52
2023-02-19T05:53:06.160Z,979.52
2023-02-19T05:54:06.075Z,979.51
2023-02-19T05:55:05.993Z,979.52
2023-02-19T05:56:05.906Z,979.57
2023-02-19T05:57:05.832Z,979.64
2023-02-19T05:58:05.750Z,979.57
2023-02-19T05:59:05.666Z,979.53
2023-02-19T06:00:05.592Z,979.53
2023-02-19T06:01:05.500Z,979.56
2023-02-19T06:02:05.418Z,979.54
2023-02-19T06:03:05.342Z,979.54
2023-02-19T06:04:05.295Z,979.60
2023-02-19T06:05:05.202Z,979.60
2023-02-19T06:06:05.093Z,979.63
2023-02-19T06:07:05.012Z,979.68
2023-02-19T06:08:04.927Z,979.60
2023-02-19T06:09:04.855Z,979.63
2023-02-19T06:10:04.772Z,979.60
2023-02-19T06:11:04.682Z,979.63
2023-02-19T06:12:04.602Z,979.64
2023-02-19T06:13:04.522Z,979.57
2023-02-19T06:14:04.436Z,979.59
2023-02-19T06:15:04.360Z,979.64
2023-02-19T06:16:04.303Z,979.60
2023-02-19T06:17:04.198Z,979.58
2023-02-19T06:18:04.120Z,979.56
2023-02-19T06:19:04.033Z,979.57
2023-02-19T06:20:03.957Z,979.53
2023-02-19T06:21:03.871Z,979.53
2023-02-19T06:22:03.787Z,979.55
2023-02-19T06:23:03.707Z,979.55
2023-02-19T06:24:03.628Z,979.55
2023-02-19T06:25:03.551Z,979.57
2023-02-19T06:26:03.463Z,979.58
2023-02-19T06:27:03.381Z,979.66
2023-02-19T06:28:03.299Z,979.58
2023-02-19T06:29:03.215Z,979.67
2023-02-19T06:30:03.220Z,979.70
2023-02-19T06:31:03.073Z,979.66
2023-02-19T06:32:03.048Z,979.69
2023-02-19T06:33:02.896Z,979.74
2023-02-19T06:34:02.808Z,979.79
2023-02-19T06:35:02.735Z,979.79
2023-02-19T06:36:02.652Z,979.82
2023-02-19T06:37:02.568Z,979.88
2023-02-19T06:38:02.487Z,979.84
2023-02-19T06:39:02.418Z,979.87
2023-02-19T06:40:02.317Z,979.85
2023-02-19T06:41:02.240Z,979.85
2023-02-19T06:42:02.162Z,979.81
2023-02-19T06:43:02.071Z,979.88
2023-02-19T06:44:02.008Z,979.87
2023-02-19T06:45:01.909Z,979.92
2023-02-19T06:46:01.863Z,979.86
2023-02-19T06:47:01.749Z,979.93
2023-02-19T06:48:01.698Z,979.89
2023-02-19T06:49:01.584Z,979.91
2023-02-19T06:50:01.505Z,979.89
2023-02-19T06:51:01.438Z,979.93
2023-02-19T06:52:01.336Z,979.94
2023-02-19T06:53:01.256Z,980.04
2023-02-19T06:54:01.174Z,980.02
2023-02-19T06:55:01.106Z,980.05
2023-02-19T06:56:01.019Z,980.05
2023-02-19T06:57:00.933Z,980.05
2023-02-19T06:58:00.846Z,980.07
2023-02-19T06:59:00.801Z,980.12
2023-02-19T07:00:00.709Z,980.16
2023-02-19T07:01:00.644Z,980.14
2023-02-19T07:02:00.525Z,980.15
2023-02-19T07:03:00.444Z,980.23
2023-02-19T07:04:00.403Z,980.13
2023-02-19T07:05:00.276Z,980.20
2023-02-19T07:06:00.197Z,980.21
2023-02-19T07:07:00.121Z,980.22
2023-02-19T07:08:00.034Z,980.18
2023-02-19T07:08:59.950Z,980.23
2023-02-19T07:09:59.868Z,980.26
2023-02-19T07:10:59.836Z,980.27
2023-02-19T07:11:59.698Z,980.18
2023-02-19T07:12:59.623Z,980.26
2023-02-19T07:13:59.532Z,980.22
2023-02-19T07:14:59.456Z,980.27
2023-02-19T07:15:59.408Z,980.28
2023-02-19T07:16:59.289Z,980.28
2023-02-19T07:17:59.207Z,980.30
2023-02-19T07:18:59.143Z,980.38
2023-02-19T07:19:59.043Z,980.50
2023-02-19T07:20:58.963Z,980.37
2023-02-19T07:21:58.880Z,980.29
2023-02-19T07:22:58.804Z,980.30
2023-02-19T07:23:58.718Z,980.34
2023-02-19T07:24:58.632Z,980.39
2023-02-19T07:25:58.563Z,980.33
2023-02-19T07:26:58.479Z,980.39
2023-02-19T07:27:58.389Z,980.42
2023-02-19T07:28:58.306Z,980.39
2023-02-19T07:29:58.229Z,980.49
2023-02-19T07:30:58.213Z,980.52
2023-02-19T07:31:58.131Z,980.43
2023-02-19T07:32:57.978Z,980.57
2023-02-19T07:33:57.894Z,980.47
2023-02-19T07:34:57.820Z,980.53
2023-02-19T07:35:57.738Z,980.53
2023-02-19T07:36:57.653Z,980.59
2023-02-19T07:37:57.572Z,980.61
2023-02-19T07:38:57.489Z,980.62
2023-02-19T07:39:57.410Z,980.65
2023-02-19T07:40:57.357Z,980.68
2023-02-19T07:41:57.248Z,980.63
2023-02-19T07:42:57.172Z,980.66
2023-02-19T07:43:57.083Z,980.67
2023-02-19T07:44:59.008Z,980.65
2023-02-19T07:45:56.954Z,980.64
2023-02-19T07:46:56.836Z,980.67
2023-02-19T07:47:56.756Z,980.63
2023-02-19T07:48:56.683Z,980.66
2023-02-19T07:49:56.597Z,980.63
2023-02-19T07:50:56.512Z,980.65
2023-02-19T07:51:56.427Z,980.70
2023-02-19T07:52:56.348Z,980.80
2023-02-19T07:53:56.267Z,980.67
2023-02-19T07:54:56.198Z,980.67
2023-02-19T07:55:56.106Z,980.78
2023-02-19T07:56:56.041Z,980.72
2023-02-19T07:57:55.939Z,980.73
2023-02-19T07:58:55.862Z,980.79
2023-02-19T07:59:55.788Z,980.81
2023-02-19T08:00:55.756Z,980.83
2023-02-19T08:01:55.619Z,980.83
2023-02-19T08:02:55.536Z,980.81
2023-02-19T08:03:55.458Z,980.83
2023-02-19T08:04:55.370Z,980.89
2023-02-19T08:05:56.620Z,980.86
2023-02-19T08:06:56.212Z,980.85
2023-02-19T08:07:55.209Z,980.84
2023-02-19T08:08:57.113Z,980.86
2023-02-19T08:09:55.076Z,980.86
2023-02-19T08:10:54.926Z,980.81
2023-02-19T08:11:54.850Z,980.88
2023-02-19T08:12:54.718Z,980.87
2023-02-19T08:13:54.680Z,980.86
2023-02-19T08:14:54.641Z,980.88
2023-02-19T08:15:57.748Z,980.82
2023-02-19T08:16:55.841Z,980.92
2023-02-19T08:17:54.378Z,980.95
2023-02-19T08:18:54.257Z,980.87
2023-02-19T08:19:54.160Z,980.93
2023-02-19T08:20:54.076Z,980.95
2023-02-19T08:21:53.996Z,980.92
2023-02-19T08:22:53.900Z,980.87
2023-02-19T08:23:53.843Z,980.86
2023-02-19T08:24:53.742Z,980.85
2023-02-19T08:25:53.654Z,980.83
2023-02-19T08:26:53.620Z,980.86
2023-02-19T08:27:53.492Z,980.89
2023-02-19T08:28:53.418Z,980.89
2023-02-19T08:29:53.338Z,980.90
2023-02-19T08:30:53.306Z,980.90
2023-02-19T08:31:53.218Z,980.91
2023-02-19T08:32:53.088Z,980.96
2023-02-19T08:33:53.000Z,980.93
2023-02-19T08:34:52.924Z,980.94
2023-02-19T08:35:52.842Z,980.98
2023-02-19T08:36:52.757Z,981.11
2023-02-19T08:37:52.685Z,981.06
2023-02-19T08:38:52.594Z,981.02
2023-02-19T08:39:52.516Z,981.03
2023-02-19T08:40:52.437Z,981.06
2023-02-19T08:41:52.352Z,981.11
2023-02-19T08:42:52.267Z,981.16
2023-02-19T08:43:52.219Z,981.13
2023-02-19T08:44:52.133Z,981.14
2023-02-19T08:45:52.046Z,981.15
2023-02-19T08:46:51.944Z,981.20
2023-02-19T08:47:51.857Z,981.19
2023-02-19T08:48:51.780Z,981.25
2023-02-19T08:49:51.698Z,981.22
2023-02-19T08:50:51.617Z,981.24
2023-02-19T08:51:51.532Z,981.22
2023-02-19T08:52:51.484Z,981.26
2023-02-19T08:53:51.374Z,981.26
2023-02-19T08:54:51.282Z,981.28
2023-02-19T08:55:51.204Z,981.31
2023-02-19T08:56:51.166Z,981.32
2023-02-19T08:57:51.057Z,981.32
2023-02-19T08:58:50.971Z,981.31
2023-02-19T08:59:50.887Z,981.26
2023-02-19T09:00:50.795Z,981.32
2023-02-19T09:01:50.744Z,981.33
2023-02-19T09:02:50.674Z,981.29
2023-02-19T09:03:50.734Z,981.32
2023-02-19T09:04:50.468Z,981.28
2023-02-19T09:05:50.403Z,981.32
2023-02-19T09:06:50.314Z,981.35
2023-02-19T09:07:50.231Z,981.35
2023-02-19T09:08:50.154Z,981.37
2023-02-19T09:09:50.062Z,981.40
2023-02-19T09:10:49.988Z,981.41
2023-02-19T09:11:49.900Z,981.44
2023-02-19T09:12:49.819Z,981.40
2023-02-19T09:13:49.735Z,981.42
2023-02-19T09:14:49.662Z,981.45
2023-02-19T09:15:49.678Z,981.41
2023-02-19T09:16:49.498Z,981.46
2023-02-19T09:17:49.419Z,981.47
2023-02-19T09:18:49.339Z,981.48
2023-02-19T09:19:50.866Z,981.54
2023-02-19T09:20:49.246Z,981.49
2023-02-19T09:21:49.090Z,981.51
2023-02-19T09:22:49.025Z,981.50
2023-02-19T09:23:48.940Z,981.50
2023-02-19T09:24:48.859Z,981.50
2023-02-19T09:25:48.781Z,981.46
2023-02-19T09:26:48.684Z,981.54
2023-02-19T09:27:48.608Z,981.54
2023-02-19T09:28:48.518Z,981.59
2023-02-19T09:29:48.450Z,981.57
2023-02-19T09:30:48.393Z,981.65
2023-02-19T09:31:48.369Z,981.61
2023-02-19T09:32:48.204Z,981.69
2023-02-19T09:33:48.119Z,981.64
2023-02-19T09:34:48.038Z,981.70
2023-02-19T09:35:47.970Z,981.76
2023-02-19T09:36:47.869Z,981.75
2023-02-19T09:37:47.794Z,981.75
2023-02-19T09:38:47.703Z,981.85
2023-02-19T09:39:47.641Z,981.80
2023-02-19T09:40:47.544Z,981.83
2023-02-19T09:41:47.491Z,981.84
2023-02-19T09:42:47.384Z,981.88
2023-02-19T09:43:47.320Z,981.81
2023-02-19T09:44:47.239Z,981.86
2023-02-19T09:45:47.136Z,981.92
2023-02-19T09:46:47.063Z,981.85
2023-02-19T09:47:46.979Z,981.95
2023-02-19T09:48:46.893Z,981.97
2023-02-19T09:49:46.812Z,981.91
2023-02-19T09:50:46.729Z,981.90
2023-02-19T09:51:46.657Z,981.90
2023-02-19T09:52:46.580Z,981.92
2023-02-19T09:53:46.497Z,981.96
2023-02-19T09:54:46.404Z,982.00
2023-02-19T09:55:46.326Z,981.94
2023-02-19T09:56:46.283Z,981.96
2023-02-19T09:57:46.191Z,981.97
2023-02-19T09:58:46.098Z,981.99
2023-02-19T09:59:46.011Z,981.92
2023-02-19T10:00:45.934Z,981.91
2023-02-19T10:01:45.942Z,981.93
2023-02-19T10:02:45.766Z,981.89
2023-02-19T10:03:45.693Z,981.89
2023-02-19T10:04:45.779Z,981.85
2023-02-19T10:05:45.529Z,981.80
2023-02-19T10:06:45.449Z,981.78
2023-02-19T10:07:45.357Z,981.87
2023-02-19T10:08:45.287Z,981.91
2023-02-19T10:09:45.196Z,981.91
2023-02-19T10:10:45.117Z,981.83
2023-02-19T10:11:45.022Z,981.88
2023-02-19T10:12:44.951Z,981.85
2023-02-19T10:13:44.874Z,981.81
2023-02-19T10:14:44.804Z,981.73
2023-02-19T10:15:44.735Z,981.84
2023-02-19T10:16:44.636Z,981.87
2023-02-19T10:17:44.546Z,981.79
2023-02-19T10:18:44.455Z,981.80
2023-02-19T10:19:44.394Z,981.77
2023-02-19T10:20:44.304Z,981.81
2023-02-19T10:21:44.222Z,981.78
2023-02-19T10:22:44.138Z,981.81
2023-02-19T10:23:44.047Z,981.84
2023-02-19T10:24:43.987Z,981.83
2023-02-19T10:25:43.894Z,981.83
2023-02-19T10:26:43.810Z,981.85
2023-02-19T10:27:43.767Z,981.90
2023-02-19T10:28:43.641Z,981.90
2023-02-19T10:29:43.558Z,981.88
2023-02-19T10:30:43.476Z,981.94
2023-02-19T10:31:43.510Z,982.02
2023-02-19T10:32:43.312Z,981.96
2023-02-19T10:33:43.241Z,982.02
2023-02-19T10:34:43.150Z,982.04
2023-02-19T10:35:43.072Z,982.03
2023-02-19T10:36:42.990Z,982.11
2023-02-19T10:37:42.910Z,982.11
2023-02-19T10:38:42.826Z,982.18
2023-02-19T10:39:42.747Z,982.12
2023-02-19T10:40:42.667Z,982.14
2023-02-19T10:41:44.348Z,982.18
2023-02-19T10:42:42.508Z,982.28
2023-02-19T10:43:42.427Z,982.12
2023-02-19T10:44:42.345Z,982.07
2023-02-19T10:45:42.270Z,982.07
2023-02-19T10:46:42.225Z,982.09
2023-02-19T10:47:42.112Z,982.23
2023-02-19T10:48:42.025Z,982.22
2023-02-19T10:49:41.946Z,982.24
2023-02-19T10:50:41.860Z,982.27
2023-02-19T10:51:41.792Z,982.26
2023-02-19T10:52:41.695Z,982.24
2023-02-19T10:53:41.629Z,982.29
2023-02-19T10:54:41.534Z,982.21
2023-02-19T10:55:41.468Z,982.29
2023-02-19T10:56:41.372Z,982.26
2023-02-19T10:57:41.297Z,982.23
2023-02-19T10:58:41.207Z,982.24
2023-02-19T10:59:41.131Z,982.26
2023-02-19T11:00:41.055Z,982.24
2023-02-19T11:01:41.000Z,982.22
2023-02-19T11:02:40.886Z,982.23
2023-02-19T11:03:40.809Z,982.26
2023-02-19T11:04:40.745Z,982.24
2023-02-19T11:05:40.646Z,982.24
2023-02-19T11:06:40.572Z,982.32
2023-02-19T11:07:40.489Z,982.31
2023-02-19T11:08:40.402Z,982.34
2023-02-19T11:09:40.364Z,982.27
2023-02-19T11:10:40.237Z,982.33
2023-02-19T11:11:40.155Z,982.28
2023-02-19T11:12:40.071Z,982.31
2023-02-19T11:13:40.001Z,982.28
2023-02-19T11:14:39.908Z,982.32
2023-02-19T11:15:39.838Z,982.35
2023-02-19T11:16:39.756Z,982.30
2023-02-19T11:17:39.675Z,982.46
2023-02-19T11:18:39.591Z,982.35
2023-02-19T11:19:39.522Z,982.32
2023-02-19T11:20:39.425Z,982.31
2023-02-19T11:21:39.348Z,982.27
2023-02-19T11:22:39.277Z,982.28
2023-02-19T11:23:39.186Z,982.26
2023-02-19T11:24:39.103Z,982.26
2023-02-19T11:25:39.019Z,982.29
2023-02-19T11:26:38.943Z,982.28
2023-02-19T11:27:38.857Z,982.30
2023-02-19T11:28:38.776Z,982.30
2023-02-19T11:29:38.708Z,982.32
2023-02-19T11:30:38.660Z,982.44
2023-02-19T11:31:38.589Z,982.46
2023-02-19T11:32:38.451Z,982.46
2023-02-19T11:33:38.374Z,982.38
2023-02-19T11:34:38.300Z,982.47
2023-02-19T11:35:38.219Z,982.47
2023-02-19T11:36:38.145Z,982.43
2023-02-19T11:37:38.050Z,982.44
2023-02-19T11:38:37.966Z,982.45
2023-02-19T11:39:37.887Z,982.40
2023-02-19T11:40:37.833Z,982.50
2023-02-19T11:41:37.731Z,982.45
2023-02-19T11:42:37.647Z,982.54
2023-02-19T11:43:37.564Z,982.54
2023-02-19T11:44:37.487Z,982.59
2023-02-19T11:45:37.404Z,982.56
2023-02-19T11:46:37.341Z,982.62
2023-02-19T11:47:37.242Z,982.65
2023-02-19T11:48:37.160Z,982.65
2023-02-19T11:49:37.099Z,982.69
2023-02-19T11:50:37.006Z,982.60
2023-02-19T11:51:36.933Z,982.59
2023-02-19T11:52:38.712Z,982.69
2023-02-19T11:53:36.758Z,982.65
2023-02-19T11:54:36.675Z,982.67
2023-02-19T11:55:36.593Z,982.59
2023-02-19T11:56:36.538Z,982.58
2023-02-19T11:57:36.433Z,982.51
2023-02-19T11:58:36.355Z,982.50
2023-02-19T11:59:36.266Z,982.54
2023-02-19T12:00:36.190Z,982.55
2023-02-19T12:01:36.154Z,982.53
2023-02-19T12:02:36.024Z,982.56
2023-02-19T12:03:35.943Z,982.50
2023-02-19T12:04:37.770Z,982.50
2023-02-19T12:05:35.781Z,982.48
2023-02-19T12:06:35.698Z,982.51
2023-02-19T12:07:35.617Z,982.59
2023-02-19T12:08:35.549Z,982.52
2023-02-19T12:09:35.459Z,982.53
2023-02-19T12:10:35.373Z,982.50
2023-02-19T12:11:35.302Z,982.54
2023-02-19T12:12:37.725Z,982.53
2023-02-19T12:13:35.131Z,982.55
2023-02-19T12:14:35.054Z,982.57
2023-02-19T12:15:34.970Z,982.59
2023-02-19T12:16:34.971Z,982.58
2023-02-19T12:17:34.805Z,982.57
2023-02-19T12:18:34.737Z,982.54
2023-02-19T12:19:34.660Z,982.63
2023-02-19T12:20:34.568Z,982.57
2023-02-19T12:21:34.480Z,982.54
2023-02-19T12:22:34.407Z,982.61
2023-02-19T12:23:34.323Z,982.55
2023-02-19T12:24:34.240Z,982.50
2023-02-19T12:25:34.836Z,982.52
2023-02-19T12:26:34.083Z,982.59
2023-02-19T12:27:34.008Z,982.53